Time;durP1;ratioP1;P1;durP2;ratioP2;P2;SDS_P1;SDS_P2;PMS_P1;PMS_P2;Temp;Humidity;BMP_temperature;BMP_pressure;BME280_temperature;BME280_humidity;BME280_pressure;Samples;Min_cycle;Max_cycle;Signal;HPM_P1;HPM_P2
2022/05/02 00:01:38;;;;;;;;;;;11.60;76.60;;;;;;5044114;28;19913;-73
2022/05/02 00:04:03;;;;;;;;;;;11.60;76.80;;;;;;5011836;28;20001;-75
2022/05/02 00:06:29;;;;;;;;;;;11.60;77.00;;;;;;5011462;28;20058;-75
2022/05/02 00:08:54;;;;;;;;;;;11.60;77.10;;;;;;5011555;28;19921;-74
2022/05/02 00:11:20;;;;;;;;;;;11.50;77.00;;;;;;5027024;28;20346;-74
2022/05/02 00:13:45;;;;;;;;;;;11.60;77.20;;;;;;5011978;28;19915;-74
2022/05/02 00:16:11;;;;;;;;;;;11.50;77.30;;;;;;5011704;28;19949;-74
2022/05/02 00:18:36;;;;;;;;;;;11.40;78.30;;;;;;5011680;28;20355;-74
2022/05/02 00:21:05;;;;;;;;;;;11.40;78.30;;;;;;5011814;28;19914;-75
2022/05/02 00:23:30;;;;;;;;;;;11.40;79.00;;;;;;5011535;28;20346;-74
2022/05/02 00:25:56;;;;;;;;;;;11.20;79.90;;;;;;5011467;28;19910;-75
2022/05/02 00:28:24;;;;;;;;;;;11.10;80.60;;;;;;5011996;28;20332;-74
2022/05/02 00:30:49;;;;;;;;;;;11.00;81.00;;;;;;5011541;28;19976;-75
2022/05/02 00:33:18;;;;;;;;;;;11.00;81.60;;;;;;5011688;28;20330;-74
2022/05/02 00:35:44;;;;;;;;;;;10.90;82.00;;;;;;5011753;28;20013;-75
2022/05/02 00:38:09;;;;;;;;;;;10.80;82.30;;;;;;5011332;28;20072;-75
2022/05/02 00:40:35;;;;;;;;;;;10.80;82.50;;;;;;5011758;28;19913;-75
2022/05/02 00:43:00;;;;;;;;;;;10.80;82.30;;;;;;5043550;28;19914;-74
2022/05/02 00:45:26;;;;;;;;;;;10.90;81.60;;;;;;5026750;28;20375;-75
2022/05/02 00:47:52;;;;;;;;;;;11.00;81.90;;;;;;5011100;28;19957;-75
2022/05/02 00:50:31;;;;;;;;;;;10.80;82.50;;;;;;5011278;28;19925;-75
2022/05/02 00:52:57;;;;;;;;;;;10.70;83.40;;;;;;5013662;28;19909;-74
2022/05/02 00:55:22;;;;;;;;;;;10.60;83.80;;;;;;5015432;28;19906;-75
2022/05/02 00:57:48;;;;;;;;;;;10.50;84.40;;;;;;5046808;28;19914;-75
2022/05/02 01:00:14;;;;;;;;;;;10.40;84.70;;;;;;5015041;28;19928;-75
2022/05/02 01:02:39;;;;;;;;;;;10.40;85.40;;;;;;5014757;28;20283;-74
2022/05/02 01:05:05;;;;;;;;;;;10.30;85.70;;;;;;5014711;28;19921;-74
2022/05/02 01:07:30;;;;;;;;;;;10.30;86.00;;;;;;5015141;28;20462;-75
2022/05/02 01:09:56;;;;;;;;;;;10.30;86.20;;;;;;5014897;28;19928;-74
2022/05/02 01:12:24;;;;;;;;;;;10.20;86.40;;;;;;5014668;28;20395;-75
2022/05/02 01:14:51;;;;;;;;;;;10.30;86.90;;;;;;5014558;28;19937;-75
2022/05/02 01:17:16;;;;;;;;;;;10.20;86.90;;;;;;5014464;28;19914;-74
2022/05/02 01:19:43;;;;;;;;;;;10.20;87.30;;;;;;5014788;28;19909;-74
2022/05/02 01:22:08;;;;;;;;;;;10.20;87.70;;;;;;5014307;28;19914;-74
2022/05/02 01:24:35;;;;;;;;;;;10.10;88.10;;;;;;5014394;28;20350;-75
2022/05/02 01:27:01;;;;;;;;;;;10.10;88.40;;;;;;5014511;28;19936;-75
2022/05/02 01:29:26;;;;;;;;;;;10.10;88.60;;;;;;5014254;28;20535;-74
2022/05/02 01:31:52;;;;;;;;;;;10.00;88.70;;;;;;5014697;28;19913;-75
2022/05/02 01:34:21;;;;;;;;;;;10.00;89.00;;;;;;5045970;28;19945;-76
2022/05/02 01:36:47;;;;;;;;;;;9.90;90.00;;;;;;4997903;28;20021;-75
2022/05/02 01:39:12;;;;;;;;;;;9.90;90.20;;;;;;4994510;28;20085;-75
2022/05/02 01:41:37;;;;;;;;;;;9.90;90.20;;;;;;5009619;28;19921;-74
2022/05/02 01:44:03;;;;;;;;;;;9.90;90.40;;;;;;4994344;28;20383;-75
2022/05/02 01:46:31;;;;;;;;;;;9.80;90.40;;;;;;4995068;28;20243;-75
2022/05/02 01:48:57;;;;;;;;;;;9.80;90.50;;;;;;4994089;28;19930;-75
2022/05/02 01:51:23;;;;;;;;;;;9.80;90.60;;;;;;5009612;28;19914;-75
2022/05/02 01:53:48;;;;;;;;;;;9.70;90.70;;;;;;4994405;28;20239;-75
2022/05/02 01:56:14;;;;;;;;;;;9.70;90.70;;;;;;4994042;28;19918;-75
2022/05/02 01:58:39;;;;;;;;;;;9.70;90.90;;;;;;5026407;28;20336;-74
2022/05/02 02:01:05;;;;;;;;;;;9.60;90.90;;;;;;4994228;28;19913;-74
2022/05/02 02:03:30;;;;;;;;;;;9.60;91.00;;;;;;4992696;28;19913;-74
2022/05/02 02:05:58;;;;;;;;;;;9.50;90.90;;;;;;4993945;28;19953;-75
2022/05/02 02:08:33;;;;;;;;;;;9.40;91.10;;;;;;4993932;28;20004;-76
2022/05/02 02:11:00;;;;;;;;;;;9.40;91.40;;;;;;4992798;28;20039;-75
2022/05/02 02:13:26;;;;;;;;;;;9.40;91.40;;;;;;4994379;28;20017;-75
2022/05/02 02:15:51;;;;;;;;;;;9.30;91.70;;;;;;4993843;28;20009;-75
2022/05/02 02:18:17;;;;;;;;;;;9.20;91.70;;;;;;4993903;28;20052;-74
2022/05/02 02:20:43;;;;;;;;;;;9.20;91.90;;;;;;4993929;28;19917;-75
2022/05/02 02:23:09;;;;;;;;;;;9.20;91.90;;;;;;4993571;28;19913;-73
2022/05/02 02:25:36;;;;;;;;;;;9.20;92.00;;;;;;4994050;28;19968;-74
2022/05/02 02:28:02;;;;;;;;;;;9.20;92.00;;;;;;4993577;28;19922;-74
2022/05/02 02:30:28;;;;;;;;;;;9.10;92.10;;;;;;4993554;28;19921;-74
2022/05/02 02:32:53;;;;;;;;;;;9.10;92.20;;;;;;4993529;28;19918;-74
2022/05/02 02:35:20;;;;;;;;;;;9.00;92.30;;;;;;4993535;28;20269;-72
2022/05/02 02:37:46;;;;;;;;;;;9.00;92.50;;;;;;5009209;28;20366;-74
2022/05/02 02:40:12;;;;;;;;;;;8.90;92.40;;;;;;4993318;28;19924;-74
2022/05/02 02:42:38;;;;;;;;;;;8.90;92.50;;;;;;4993256;28;19918;-74
2022/05/02 02:45:04;;;;;;;;;;;8.90;92.60;;;;;;4993425;28;19982;-74
2022/05/02 02:47:29;;;;;;;;;;;8.90;92.60;;;;;;4993289;28;19921;-74
2022/05/02 02:49:55;;;;;;;;;;;8.90;92.70;;;;;;5024779;28;19921;-74
2022/05/02 02:52:20;;;;;;;;;;;8.90;92.70;;;;;;4993475;28;19916;-74
2022/05/02 02:54:46;;;;;;;;;;;8.90;92.70;;;;;;4993112;28;19925;-73
2022/05/02 02:57:11;;;;;;;;;;;8.90;92.70;;;;;;4993137;28;20009;-74
2022/05/02 02:59:37;;;;;;;;;;;8.90;92.80;;;;;;4993087;28;19984;-74
2022/05/02 03:02:05;;;;;;;;;;;8.90;92.90;;;;;;4993325;28;20255;-75
2022/05/02 03:07:14;;;;;;;;;;;9.20;92.60;;;;;;4993159;28;20252;-73
2022/05/02 03:09:42;;;;;;;;;;;9.20;92.50;;;;;;4992758;28;19926;-74
2022/05/02 03:12:08;;;;;;;;;;;9.30;92.40;;;;;;4992773;28;20005;-74
2022/05/02 03:14:33;;;;;;;;;;;9.30;92.30;;;;;;4992314;28;20415;-74
2022/05/02 03:16:59;;;;;;;;;;;9.30;92.40;;;;;;5024473;28;19910;-73
2022/05/02 03:19:25;;;;;;;;;;;9.30;92.30;;;;;;4993110;28;19975;-74
2022/05/02 03:21:50;;;;;;;;;;;9.40;92.30;;;;;;4992692;28;20357;-74
2022/05/02 03:24:16;;;;;;;;;;;9.20;92.50;;;;;;4992608;28;20009;-74
2022/05/02 03:26:41;;;;;;;;;;;9.10;92.80;;;;;;4992568;28;20390;-73
2022/05/02 03:29:07;;;;;;;;;;;9.00;92.90;;;;;;4992529;28;19928;-74
2022/05/02 03:31:32;;;;;;;;;;;9.00;93.00;;;;;;4993063;28;19952;-73
2022/05/02 03:33:58;;;;;;;;;;;8.90;93.20;;;;;;4992324;28;19976;-74
2022/05/02 03:36:23;;;;;;;;;;;8.90;93.40;;;;;;4992315;28;20426;-74
2022/05/02 03:38:49;;;;;;;;;;;8.80;93.60;;;;;;4992397;28;19957;-74
2022/05/02 03:41:14;;;;;;;;;;;8.70;93.60;;;;;;4992331;28;19914;-74
2022/05/02 03:43:40;;;;;;;;;;;8.80;93.70;;;;;;4992517;28;19937;-73
2022/05/02 03:46:06;;;;;;;;;;;8.70;93.70;;;;;;4992341;28;19921;-74
2022/05/02 03:48:31;;;;;;;;;;;8.70;93.80;;;;;;4992153;28;19929;-74
2022/05/02 03:50:57;;;;;;;;;;;8.70;93.80;;;;;;4992143;28;19922;-74
2022/05/02 03:53:22;;;;;;;;;;;8.70;93.90;;;;;;4992263;28;20340;-74
2022/05/02 03:55:48;;;;;;;;;;;8.70;94.00;;;;;;4992501;28;19968;-73
2022/05/02 03:58:13;;;;;;;;;;;8.80;94.00;;;;;;4992226;28;19918;-73
2022/05/02 04:00:41;;;;;;;;;;;8.90;93.90;;;;;;4992107;28;19922;-74
2022/05/02 04:03:07;;;;;;;;;;;9.00;93.60;;;;;;4992015;28;20021;-73
2022/05/02 04:05:32;;;;;;;;;;;9.00;93.70;;;;;;4992030;28;19946;-74
2022/05/02 04:07:58;;;;;;;;;;;9.10;93.40;;;;;;4992182;28;20311;-74
2022/05/02 04:10:23;;;;;;;;;;;9.20;93.20;;;;;;5007845;28;19918;-75
2022/05/02 04:12:52;;;;;;;;;;;9.30;93.10;;;;;;4992011;28;19975;-74
2022/05/02 04:15:17;;;;;;;;;;;9.20;93.20;;;;;;4992096;28;19950;-74
2022/05/02 04:17:43;;;;;;;;;;;9.10;93.70;;;;;;4991936;28;20379;-74
2022/05/02 04:20:09;;;;;;;;;;;9.10;93.50;;;;;;4992182;28;20344;-74
2022/05/02 04:22:35;;;;;;;;;;;9.00;93.60;;;;;;4992396;28;19921;-74
2022/05/02 04:25:00;;;;;;;;;;;9.10;93.40;;;;;;4992022;28;19914;-74
2022/05/02 04:27:26;;;;;;;;;;;9.20;93.30;;;;;;4995347;28;20314;-74
2022/05/02 04:29:51;;;;;;;;;;;9.20;93.20;;;;;;5027496;28;19917;-74
2022/05/02 04:32:17;;;;;;;;;;;9.20;93.50;;;;;;5011103;28;20339;-74
2022/05/02 04:34:42;;;;;;;;;;;9.10;93.50;;;;;;4995921;28;19924;-74
2022/05/02 04:37:08;;;;;;;;;;;9.20;93.40;;;;;;4995663;28;19914;-75
2022/05/02 04:39:34;;;;;;;;;;;9.10;93.50;;;;;;5027351;28;19972;-74
2022/05/02 04:41:59;;;;;;;;;;;9.30;93.40;;;;;;4995516;28;20263;-74
2022/05/02 04:44:25;;;;;;;;;;;9.40;93.00;;;;;;4995507;28;19936;-74
2022/05/02 04:46:50;;;;;;;;;;;9.50;92.90;;;;;;5027550;28;19980;-74
2022/05/02 04:49:16;;;;;;;;;;;9.50;92.80;;;;;;4995183;28;19926;-74
2022/05/02 04:51:41;;;;;;;;;;;9.50;93.10;;;;;;4995406;28;19913;-73
2022/05/02 04:54:07;;;;;;;;;;;9.40;93.30;;;;;;4995106;28;20292;-73
2022/05/02 04:56:32;;;;;;;;;;;9.40;93.50;;;;;;4995513;28;19964;-74
2022/05/02 04:58:58;;;;;;;;;;;9.30;93.50;;;;;;4995323;28;19921;-74
2022/05/02 05:01:24;;;;;;;;;;;9.40;93.50;;;;;;4995771;28;19910;-74
2022/05/02 05:03:49;;;;;;;;;;;9.50;93.00;;;;;;4995150;28;19929;-74
2022/05/02 05:06:15;;;;;;;;;;;9.60;93.00;;;;;;4995024;28;19914;-75
2022/05/02 05:08:40;;;;;;;;;;;9.60;93.00;;;;;;4994836;28;19914;-74
2022/05/02 05:11:17;;;;;;;;;;;9.60;92.80;;;;;;5010282;28;20370;-74
2022/05/02 05:17:04;;;;;;;;;;;9.70;93.00;;;;;;4995076;28;20375;-74
2022/05/02 05:19:51;;;;;;;;;;;9.70;92.90;;;;;;4995620;28;19965;-76
2022/05/02 05:22:36;;;;;;;;;;;9.70;93.00;;;;;;4994512;28;19921;-74
2022/05/02 05:25:10;;;;;;;;;;;9.80;92.90;;;;;;4994891;28;19914;-74
2022/05/02 05:27:55;;;;;;;;;;;9.90;92.70;;;;;;4994784;28;19914;-74
2022/05/02 05:30:21;;;;;;;;;;;9.90;92.60;;;;;;4994218;28;20067;-74
2022/05/02 05:33:05;;;;;;;;;;;10.00;92.10;;;;;;4994582;28;19968;-75
2022/05/02 05:35:30;;;;;;;;;;;10.00;92.40;;;;;;5026256;28;20048;-75
2022/05/02 05:38:03;;;;;;;;;;;10.00;92.50;;;;;;4993798;28;20342;-75
2022/05/02 05:40:30;;;;;;;;;;;10.00;92.50;;;;;;4994688;28;19906;-75
2022/05/02 05:43:14;;;;;;;;;;;9.90;93.00;;;;;;5009587;28;19921;-75
2022/05/02 05:45:46;;;;;;;;;;;9.90;93.10;;;;;;4994210;28;19918;-75
2022/05/02 05:48:30;;;;;;;;;;;10.00;92.60;;;;;;4994150;28;19922;-75
2022/05/02 05:51:10;;;;;;;;;;;9.90;93.10;;;;;;5025893;28;19918;-75
2022/05/02 05:53:40;;;;;;;;;;;10.00;92.70;;;;;;4994130;28;19914;-75
2022/05/02 05:56:23;;;;;;;;;;;10.00;92.70;;;;;;4994047;28;20320;-74
2022/05/02 05:59:15;;;;;;;;;;;10.20;92.80;;;;;;4995151;28;19968;-75
2022/05/02 06:01:50;;;;;;;;;;;10.30;92.70;;;;;;4994039;28;19937;-75
2022/05/02 06:04:17;;;;;;;;;;;10.40;92.80;;;;;;4994044;28;20400;-75
2022/05/02 06:06:44;;;;;;;;;;;10.40;92.70;;;;;;4993786;28;20344;-75
2022/05/02 06:09:10;;;;;;;;;;;10.60;92.30;;;;;;4993696;28;19970;-75
2022/05/02 06:11:38;;;;;;;;;;;10.80;92.20;;;;;;4993865;28;19924;-75
2022/05/02 06:14:05;;;;;;;;;;;10.80;91.90;;;;;;4993474;28;19995;-75
2022/05/02 06:19:25;;;;;;;;;;;11.00;91.70;;;;;;4993700;28;19920;-74
2022/05/02 06:21:52;;;;;;;;;;;11.10;91.50;;;;;;5025433;28;20165;-75
2022/05/02 06:24:18;;;;;;;;;;;11.20;91.30;;;;;;5005716;28;19917;-76
2022/05/02 06:26:45;;;;;;;;;;;11.30;91.10;;;;;;5002947;28;19928;-76
2022/05/02 06:29:11;;;;;;;;;;;11.40;90.80;;;;;;5008811;28;19913;-74
2022/05/02 06:31:37;;;;;;;;;;;11.50;90.60;;;;;;4993686;28;19961;-74
2022/05/02 06:34:04;;;;;;;;;;;11.60;90.50;;;;;;4993282;28;19920;-74
2022/05/02 06:36:33;;;;;;;;;;;11.70;90.40;;;;;;4993186;28;19913;-74
2022/05/02 06:39:18;;;;;;;;;;;11.80;90.30;;;;;;4992917;28;19992;-74
2022/05/02 06:41:50;;;;;;;;;;;12.00;90.20;;;;;;5008011;28;19994;-73
2022/05/02 06:44:34;;;;;;;;;;;12.10;90.10;;;;;;4993064;28;20344;-75
2022/05/02 06:47:11;;;;;;;;;;;12.30;90.00;;;;;;4992920;28;19910;-73
2022/05/02 06:49:41;;;;;;;;;;;12.60;89.70;;;;;;4992747;28;19922;-75
2022/05/02 06:52:09;;;;;;;;;;;12.70;89.20;;;;;;4993007;28;19914;-75
2022/05/02 06:54:38;;;;;;;;;;;12.90;89.20;;;;;;4993013;28;19953;-73
2022/05/02 06:57:22;;;;;;;;;;;13.00;89.00;;;;;;4993109;28;20107;-74
2022/05/02 07:00:01;;;;;;;;;;;13.00;89.00;;;;;;4993028;28;20049;-75
2022/05/02 07:02:47;;;;;;;;;;;13.00;88.80;;;;;;4992898;28;19914;-73
2022/05/02 07:05:27;;;;;;;;;;;13.00;88.80;;;;;;4981579;28;19976;-74
2022/05/02 07:07:57;;;;;;;;;;;13.00;89.10;;;;;;4993155;28;20285;-74
2022/05/02 07:10:28;;;;;;;;;;;13.00;89.00;;;;;;4992884;28;19929;-73
2022/05/02 07:13:01;;;;;;;;;;;13.00;89.00;;;;;;4992975;28;19913;-74
2022/05/02 07:15:29;;;;;;;;;;;13.00;88.60;;;;;;4992471;28;20363;-74
2022/05/02 07:17:54;;;;;;;;;;;13.00;88.30;;;;;;4992616;28;19921;-73
2022/05/02 07:20:29;;;;;;;;;;;13.00;88.00;;;;;;4992216;28;20157;-74
2022/05/02 07:23:17;;;;;;;;;;;13.10;87.70;;;;;;4992255;28;20430;-74
2022/05/02 07:25:44;;;;;;;;;;;13.30;87.40;;;;;;4982563;28;19910;-74
2022/05/02 07:28:22;;;;;;;;;;;13.40;87.10;;;;;;4992394;28;19925;-74
2022/05/02 07:30:49;;;;;;;;;;;13.40;86.60;;;;;;4992341;28;19929;-75
2022/05/02 07:33:15;;;;;;;;;;;13.60;86.80;;;;;;4992385;28;19917;-73
2022/05/02 07:35:42;;;;;;;;;;;13.70;86.40;;;;;;4992039;28;19972;-75
2022/05/02 07:38:07;;;;;;;;;;;13.70;86.10;;;;;;4992219;28;19967;-76
2022/05/02 07:40:33;;;;;;;;;;;13.80;85.90;;;;;;4992696;28;19953;-74
2022/05/02 07:43:00;;;;;;;;;;;13.90;85.30;;;;;;4992238;28;19929;-74
2022/05/02 07:45:29;;;;;;;;;;;14.00;84.70;;;;;;4992123;28;19960;-74
2022/05/02 07:47:57;;;;;;;;;;;13.90;84.40;;;;;;4990921;28;19964;-74
2022/05/02 07:50:25;;;;;;;;;;;14.00;84.30;;;;;;4991952;28;19917;-74
2022/05/02 07:52:51;;;;;;;;;;;14.10;84.30;;;;;;4992481;28;20302;-74
2022/05/02 07:55:20;;;;;;;;;;;14.20;83.90;;;;;;4991976;28;19949;-76
2022/05/02 07:57:48;;;;;;;;;;;14.40;84.00;;;;;;4992101;28;20333;-75
2022/05/02 08:00:16;;;;;;;;;;;14.80;83.70;;;;;;4991961;28;19922;-74
2022/05/02 08:02:42;;;;;;;;;;;15.30;83.10;;;;;;4991664;28;19980;-76
2022/05/02 08:05:08;;;;;;;;;;;16.60;80.70;;;;;;4991817;28;19914;-76
2022/05/02 08:07:35;;;;;;;;;;;17.00;78.10;;;;;;4992667;28;19910;-75
2022/05/02 08:10:10;;;;;;;;;;;17.40;77.30;;;;;;5023121;28;19921;-75
2022/05/02 08:12:40;;;;;;;;;;;17.70;75.50;;;;;;5023480;28;19914;-76
2022/05/02 08:15:15;;;;;;;;;;;18.10;74.60;;;;;;4992140;28;19924;-74
2022/05/02 08:17:59;;;;;;;;;;;18.70;72.90;;;;;;5007195;28;19941;-75
2022/05/02 08:20:34;;;;;;;;;;;18.90;71.00;;;;;;5023753;28;19925;-76
2022/05/02 08:28:57;;;;;;;;;;;20.10;67.90;;;;;;4991585;28;19988;-76
2022/05/02 08:31:49;;;;;;;;;;;20.30;66.20;;;;;;4992237;28;20394;-75
2022/05/02 08:34:28;;;;;;;;;;;20.40;66.90;;;;;;4991673;28;19929;-75
2022/05/02 08:37:17;;;;;;;;;;;21.20;64.00;;;;;;5006962;28;19924;-75
2022/05/02 08:39:58;;;;;;;;;;;22.30;62.60;;;;;;4987658;28;19914;-75
2022/05/02 08:42:36;;;;;;;;;;;22.80;58.70;;;;;;4991700;28;20005;-76
2022/05/02 08:45:11;;;;;;;;;;;23.90;57.90;;;;;;4991959;28;19920;-75
2022/05/02 08:47:51;;;;;;;;;;;24.90;56.10;;;;;;5023296;28;19941;-76
2022/05/02 08:50:36;;;;;;;;;;;25.70;53.90;;;;;;4991572;28;19917;-75
2022/05/02 08:53:19;;;;;;;;;;;25.80;52.70;;;;;;5023197;28;20366;-76
2022/05/02 08:56:08;;;;;;;;;;;26.40;51.40;;;;;;4991966;28;19906;-76
2022/05/02 08:58:43;;;;;;;;;;;26.20;49.90;;;;;;4991750;28;19913;-76
2022/05/02 09:01:17;;;;;;;;;;;27.20;48.80;;;;;;4991384;28;19917;-75
2022/05/02 09:03:55;;;;;;;;;;;27.80;47.10;;;;;;4991262;28;19921;-77
2022/05/02 09:06:39;;;;;;;;;;;27.90;46.60;;;;;;4991434;28;20221;-76
2022/05/02 09:09:24;;;;;;;;;;;28.10;45.20;;;;;;4991372;28;19980;-75
2022/05/02 09:12:08;;;;;;;;;;;27.80;45.00;;;;;;4991540;28;19968;-76
2022/05/02 09:14:57;;;;;;;;;;;28.80;43.90;;;;;;4994620;28;19980;-76
2022/05/02 09:17:25;;;;;;;;;;;29.00;43.00;;;;;;4994460;28;19925;-75
2022/05/02 09:20:09;;;;;;;;;;;28.40;42.60;;;;;;4995109;28;19921;-76
2022/05/02 09:22:53;;;;;;;;;;;28.80;41.90;;;;;;4994669;28;19917;-76
2022/05/02 09:25:33;;;;;;;;;;;29.50;41.80;;;;;;4994779;28;19918;-78
2022/05/02 09:28:04;;;;;;;;;;;29.90;41.30;;;;;;5026520;28;20328;-77
2022/05/02 09:30:45;;;;;;;;;;;29.90;40.50;;;;;;4994490;28;19968;-76
2022/05/02 09:33:17;;;;;;;;;;;30.00;40.00;;;;;;4994572;28;19938;-76
2022/05/02 09:35:52;;;;;;;;;;;29.80;39.70;;;;;;4994368;28;19914;-76
2022/05/02 09:38:25;;;;;;;;;;;29.20;40.10;;;;;;4994353;28;20016;-76
2022/05/02 09:40:58;;;;;;;;;;;29.00;39.80;;;;;;4994832;28;19910;-76
2022/05/02 09:49:35;;;;;;;;;;;29.40;38.50;;;;;;4993929;28;19936;-76
2022/05/02 09:52:02;;;;;;;;;;;29.50;39.10;;;;;;4994163;28;19914;-76
2022/05/02 09:57:16;;;;;;;;;;;30.00;38.00;;;;;;4993728;28;19980;-77
2022/05/02 09:59:46;;;;;;;;;;;30.10;37.70;;;;;;4994110;28;19957;-77
2022/05/02 10:02:18;;;;;;;;;;;30.00;37.30;;;;;;4993975;28;20475;-77
2022/05/02 10:04:48;;;;;;;;;;;29.70;37.50;;;;;;4994261;28;19941;-77
2022/05/02 10:07:16;;;;;;;;;;;29.80;37.40;;;;;;5009475;28;20355;-76
2022/05/02 10:09:45;;;;;;;;;;;29.10;38.50;;;;;;4994036;28;20470;-75
2022/05/02 10:12:16;;;;;;;;;;;28.80;37.50;;;;;;4994001;28;19921;-75
2022/05/02 10:15:02;;;;;;;;;;;28.70;38.20;;;;;;5009160;28;20286;-75
2022/05/02 10:17:48;;;;;;;;;;;27.80;38.90;;;;;;4993665;28;19918;-73
2022/05/02 10:20:13;;;;;;;;;;;27.60;39.40;;;;;;4993530;28;19913;-75
2022/05/02 10:22:50;;;;;;;;;;;27.00;39.30;;;;;;4993894;28;19933;-74
2022/05/02 10:25:32;;;;;;;;;;;27.00;39.60;;;;;;4993436;28;19914;-74
2022/05/02 10:28:04;;;;;;;;;;;26.00;40.80;;;;;;4993747;28;19914;-74
2022/05/02 10:30:50;;;;;;;;;;;26.10;41.60;;;;;;4993348;28;19932;-74
2022/05/02 10:33:21;;;;;;;;;;;25.80;41.80;;;;;;4993378;28;19924;-75
2022/05/02 10:35:46;;;;;;;;;;;26.00;42.10;;;;;;4993259;28;19914;-75
2022/05/02 10:38:13;;;;;;;;;;;25.30;41.90;;;;;;5008235;28;20060;-76
2022/05/02 10:40:39;;;;;;;;;;;25.20;42.90;;;;;;5008612;28;19913;-77
2022/05/02 10:43:06;;;;;;;;;;;25.10;42.90;;;;;;4992961;28;20107;-75
2022/05/02 10:45:33;;;;;;;;;;;25.00;43.20;;;;;;4993389;28;20067;-75
2022/05/02 10:48:05;;;;;;;;;;;24.70;42.30;;;;;;4993047;28;19945;-75
2022/05/02 10:50:31;;;;;;;;;;;24.70;42.40;;;;;;4992692;28;19957;-75
2022/05/02 10:53:09;;;;;;;;;;;24.60;42.20;;;;;;4992984;28;20332;-74
2022/05/02 10:55:38;;;;;;;;;;;24.30;41.60;;;;;;5025179;28;19917;-74
2022/05/02 10:58:05;;;;;;;;;;;24.00;41.60;;;;;;4992780;28;20153;-75
2022/05/02 11:00:31;;;;;;;;;;;23.50;42.30;;;;;;4992693;28;19913;-75
2022/05/02 11:03:09;;;;;;;;;;;23.30;42.30;;;;;;4992845;28;19920;-75
2022/05/02 11:05:44;;;;;;;;;;;23.10;42.70;;;;;;5007990;28;19945;-74
2022/05/02 11:08:18;;;;;;;;;;;23.30;43.00;;;;;;4993041;28;19968;-74
2022/05/02 11:10:44;;;;;;;;;;;23.40;43.10;;;;;;5008386;28;20024;-75
2022/05/02 11:13:15;;;;;;;;;;;23.30;42.70;;;;;;4992701;28;20012;-74
2022/05/02 11:15:58;;;;;;;;;;;23.30;42.70;;;;;;4992475;28;19913;-74
2022/05/02 11:21:32;;;;;;;;;;;22.70;42.90;;;;;;4992632;28;19925;-74
2022/05/02 11:24:12;;;;;;;;;;;22.80;43.30;;;;;;4992116;28;19914;-72
2022/05/02 11:26:43;;;;;;;;;;;22.40;43.30;;;;;;4992506;28;19949;-74
2022/05/02 11:29:18;;;;;;;;;;;22.20;43.70;;;;;;4992129;28;19913;-75
2022/05/02 11:31:47;;;;;;;;;;;22.20;44.00;;;;;;4992620;28;19913;-74
2022/05/02 11:34:22;;;;;;;;;;;22.10;44.10;;;;;;4992212;28;19914;-74
2022/05/02 11:36:53;;;;;;;;;;;22.40;44.00;;;;;;5023312;28;19921;-75
2022/05/02 11:39:37;;;;;;;;;;;22.60;43.90;;;;;;4992221;28;19918;-75
2022/05/02 11:42:07;;;;;;;;;;;22.60;43.70;;;;;;4992011;28;19914;-74
2022/05/02 11:44:37;;;;;;;;;;;22.50;43.90;;;;;;4991951;28;19914;-75
2022/05/02 11:47:05;;;;;;;;;;;22.40;44.30;;;;;;4991925;28;19910;-74
2022/05/02 11:49:49;;;;;;;;;;;22.40;44.30;;;;;;4992055;28;20287;-74
2022/05/02 11:52:22;;;;;;;;;;;22.30;44.80;;;;;;4991987;28;20362;-74
2022/05/02 11:54:54;;;;;;;;;;;22.10;44.70;;;;;;4991734;28;19914;-75
2022/05/02 11:57:41;;;;;;;;;;;21.80;44.90;;;;;;4991755;28;19928;-75
2022/05/02 12:00:06;;;;;;;;;;;22.10;44.90;;;;;;4990670;28;20340;-74
2022/05/02 12:02:35;;;;;;;;;;;21.80;45.00;;;;;;4991724;28;20264;-75
2022/05/02 12:05:05;;;;;;;;;;;22.00;45.70;;;;;;4991462;28;19976;-75
2022/05/02 12:07:32;;;;;;;;;;;21.90;45.80;;;;;;4992049;28;19910;-75
2022/05/02 12:10:08;;;;;;;;;;;22.10;45.80;;;;;;4991528;28;19921;-76
2022/05/02 12:12:34;;;;;;;;;;;22.30;45.60;;;;;;5023290;28;19925;-75
2022/05/02 12:15:00;;;;;;;;;;;22.40;45.40;;;;;;4991742;28;19914;-74
2022/05/02 12:17:26;;;;;;;;;;;22.50;45.90;;;;;;4991571;28;19914;-75
2022/05/02 12:19:52;;;;;;;;;;;22.50;45.80;;;;;;4991808;28;19925;-75
2022/05/02 12:22:22;;;;;;;;;;;22.50;45.70;;;;;;4991381;28;19920;-75
2022/05/02 12:24:49;;;;;;;;;;;22.50;45.70;;;;;;4991396;28;19925;-75
2022/05/02 12:27:16;;;;;;;;;;;22.50;45.60;;;;;;5023061;28;19968;-74
2022/05/02 12:29:42;;;;;;;;;;;22.40;45.50;;;;;;5023032;28;19918;-76
2022/05/02 12:32:08;;;;;;;;;;;22.40;45.60;;;;;;4991199;28;20415;-74
2022/05/02 12:34:35;;;;;;;;;;;22.30;45.40;;;;;;4991758;28;19921;-76
2022/05/02 12:37:04;;;;;;;;;;;22.30;45.90;;;;;;4991229;28;19921;-75
2022/05/02 12:39:45;;;;;;;;;;;22.30;45.90;;;;;;4991590;28;20056;-75
2022/05/02 12:42:16;;;;;;;;;;;22.40;46.10;;;;;;4991119;28;19932;-74
2022/05/02 12:44:46;;;;;;;;;;;22.20;46.10;;;;;;4990947;28;19914;-75
2022/05/02 12:47:16;;;;;;;;;;;22.00;46.30;;;;;;5022719;28;20398;-75
2022/05/02 12:49:52;;;;;;;;;;;21.90;46.10;;;;;;4995015;28;19925;-74
2022/05/02 12:52:18;;;;;;;;;;;21.80;46.20;;;;;;5009960;28;19914;-75
2022/05/02 12:54:48;;;;;;;;;;;21.70;46.30;;;;;;4994562;28;20367;-75
2022/05/02 13:02:46;;;;;;;;;;;21.80;46.30;;;;;;4994772;28;20157;-75
2022/05/02 13:05:15;;;;;;;;;;;21.80;46.30;;;;;;4994642;28;19917;-75
2022/05/02 13:07:44;;;;;;;;;;;21.70;46.40;;;;;;5026567;28;19975;-75
2022/05/02 13:10:16;;;;;;;;;;;21.70;46.40;;;;;;5009454;28;19928;-75
2022/05/02 13:13:04;;;;;;;;;;;21.60;46.50;;;;;;4994955;28;19921;-74
2022/05/02 13:15:32;;;;;;;;;;;21.50;46.70;;;;;;4994757;28;19918;-75
2022/05/02 13:18:02;;;;;;;;;;;21.40;46.80;;;;;;4994544;28;20020;-76
2022/05/02 13:20:29;;;;;;;;;;;21.50;46.90;;;;;;4994518;28;19933;-75
2022/05/02 13:22:59;;;;;;;;;;;21.60;47.00;;;;;;4994592;28;20020;-75
2022/05/02 13:25:43;;;;;;;;;;;21.70;47.00;;;;;;4994967;28;20326;-75
2022/05/02 13:28:09;;;;;;;;;;;21.70;46.90;;;;;;4994430;28;19929;-74
2022/05/02 13:30:35;;;;;;;;;;;21.40;47.00;;;;;;4993900;28;19918;-75
2022/05/02 13:33:06;;;;;;;;;;;21.40;47.00;;;;;;4994163;28;20419;-75
2022/05/02 13:35:34;;;;;;;;;;;21.50;47.00;;;;;;4994226;28;20021;-75
2022/05/02 13:38:08;;;;;;;;;;;21.40;47.10;;;;;;5025976;28;19972;-75
2022/05/02 13:40:54;;;;;;;;;;;21.30;47.30;;;;;;4994719;28;19909;-76
2022/05/02 13:43:34;;;;;;;;;;;21.30;47.50;;;;;;4993853;28;19968;-76
2022/05/02 13:46:00;;;;;;;;;;;21.20;47.60;;;;;;4993804;28;19929;-75
2022/05/02 13:48:30;;;;;;;;;;;21.20;48.30;;;;;;4993689;28;20268;-75
2022/05/02 13:51:08;;;;;;;;;;;21.20;47.90;;;;;;4993700;28;19926;-75
2022/05/02 13:53:54;;;;;;;;;;;21.30;47.90;;;;;;4993924;28;20006;-76
2022/05/02 13:56:43;;;;;;;;;;;21.30;47.90;;;;;;4993823;28;19926;-75
2022/05/02 13:59:27;;;;;;;;;;;21.30;48.00;;;;;;4993262;28;20359;-76
2022/05/02 14:02:01;;;;;;;;;;;21.40;47.50;;;;;;4993953;28;20025;-76
2022/05/02 14:09:32;;;;;;;;;;;21.30;47.50;;;;;;4993404;28;20244;-76
2022/05/02 14:11:58;;;;;;;;;;;21.00;47.80;;;;;;4993616;28;19925;-75
2022/05/02 14:14:23;;;;;;;;;;;21.00;48.10;;;;;;4993379;28;19926;-76
2022/05/02 14:16:49;;;;;;;;;;;21.00;48.00;;;;;;4993792;28;19996;-74
2022/05/02 14:19:20;;;;;;;;;;;21.00;48.00;;;;;;4993411;28;19914;-75
2022/05/02 14:21:49;;;;;;;;;;;21.10;48.00;;;;;;4993435;28;19914;-77
2022/05/02 14:24:15;;;;;;;;;;;21.00;47.80;;;;;;4993317;28;20013;-75
2022/05/02 14:26:41;;;;;;;;;;;20.90;47.90;;;;;;4993060;28;20000;-74
2022/05/02 14:29:08;;;;;;;;;;;20.90;47.90;;;;;;4993531;28;20328;-75
2022/05/02 14:31:35;;;;;;;;;;;21.10;48.00;;;;;;4993762;28;19941;-75
2022/05/02 14:34:05;;;;;;;;;;;21.20;48.00;;;;;;4993006;28;19945;-75
2022/05/02 14:36:30;;;;;;;;;;;21.20;48.10;;;;;;4992871;28;19925;-74
2022/05/02 14:38:57;;;;;;;;;;;21.20;48.20;;;;;;4993035;28;20283;-76
2022/05/02 14:41:23;;;;;;;;;;;21.20;48.20;;;;;;5024690;28;19914;-74
2022/05/02 14:43:52;;;;;;;;;;;21.50;48.30;;;;;;4993699;28;19924;-75
2022/05/02 14:46:20;;;;;;;;;;;21.50;47.50;;;;;;4992990;28;19964;-75
2022/05/02 14:48:48;;;;;;;;;;;21.50;47.40;;;;;;4992908;28;19972;-75
2022/05/02 14:51:13;;;;;;;;;;;21.50;47.90;;;;;;4992703;28;19918;-75
2022/05/02 14:53:43;;;;;;;;;;;21.20;47.50;;;;;;4992725;28;19921;-75
2022/05/02 14:56:12;;;;;;;;;;;21.20;47.90;;;;;;4992810;28;19933;-75
2022/05/02 14:58:40;;;;;;;;;;;21.00;47.80;;;;;;4993191;28;20253;-74
2022/05/02 15:01:08;;;;;;;;;;;21.00;48.20;;;;;;4992842;28;19921;-75
2022/05/02 15:03:38;;;;;;;;;;;21.20;48.40;;;;;;4992960;28;19975;-75
2022/05/02 15:06:05;;;;;;;;;;;21.30;48.50;;;;;;4993125;28;19918;-76
2022/05/02 15:08:40;;;;;;;;;;;21.30;48.60;;;;;;4992842;28;19914;-76
2022/05/02 15:11:24;;;;;;;;;;;21.20;48.40;;;;;;4991760;28;19914;-75
2022/05/02 15:14:08;;;;;;;;;;;21.20;48.70;;;;;;4992904;28;20000;-75
2022/05/02 15:16:34;;;;;;;;;;;21.20;48.60;;;;;;4992913;28;19924;-74